RJBB/KIX METAR and TAF weather

Enter ICAO airport designator
Station Type Date Time Source
RJBB METAR 2019/02/20 23:00 UTC NOAA

RJBB 202300Z 01012KT 9999 FEW030 BKN050 08/01 Q1023 NOSIG


Station Type Date Time Source
RJBB Decoded METAR 2019/02/20 23:00 UTC NOAA

Kansai International Airport, Japan (RJBB) 34-25N 135-15E 8M
Feb 20, 2019 - 06:00 PM EST / 2019.02.20 2300 UTC
Wind: from the N (010 degrees) at 14 MPH (12 KT):0
Visibility: greater than 7 mile(s):0
Sky conditions: mostly cloudy
Temperature: 46 F (8 C)
Dew Point: 33 F (1 C)
Relative Humidity: 61%
Pressure (altimeter): 30.21 in. Hg (1023 hPa)
ob: RJBB 202300Z 01012KT 9999 FEW030 BKN050 08/01 Q1023 NOSIG
cycle: 23

Station Type Date Time Source
RJBB TAF 2019/02/20 18:06 UTC NOAA

TAF RJBB 201705Z 2018/2200 36014KT 9999 FEW025
BECMG 2112/2115 07008KT


Example: see airport list